createdAt,value
2022-12-11T00:00:57.973Z,947.96
2022-12-11T00:03:57.131Z,947.91
2022-12-11T00:06:57.858Z,948.01
2022-12-11T00:09:57.226Z,948.04
2022-12-11T00:12:56.915Z,948.02
2022-12-11T00:15:57.383Z,948.06
2022-12-11T00:18:57.289Z,948.0
2022-12-11T00:21:57.536Z,948.07
2022-12-11T00:24:58.068Z,948.09
2022-12-11T00:27:57.689Z,948.12
2022-12-11T00:30:57.545Z,948.01
2022-12-11T00:33:57.637Z,948.05
2022-12-11T00:36:57.041Z,948.18
2022-12-11T00:39:57.699Z,948.08
2022-12-11T00:42:57.484Z,948.08
2022-12-11T00:45:57.655Z,948.07
2022-12-11T00:48:57.261Z,948.0
2022-12-11T00:51:57.529Z,947.92
2022-12-11T00:54:57.375Z,947.99
2022-12-11T00:57:57.254Z,948.01
2022-12-11T01:00:58.258Z,948.03
2022-12-11T01:03:56.809Z,947.98
2022-12-11T01:06:57.307Z,948.01
2022-12-11T01:09:57.475Z,948.03
2022-12-11T01:12:57.189Z,947.99
2022-12-11T01:15:57.090Z,948.09
2022-12-11T01:18:57.162Z,948.08
2022-12-11T01:21:57.630Z,948.0
2022-12-11T01:24:57.657Z,948.07
2022-12-11T01:27:57.822Z,948.15
2022-12-11T01:30:57.482Z,948.16
2022-12-11T01:33:57.976Z,948.22
2022-12-11T01:36:57.323Z,948.27
2022-12-11T01:39:57.604Z,948.26
2022-12-11T01:42:57.812Z,948.23
2022-12-11T01:45:57.853Z,948.35
2022-12-11T01:48:56.807Z,948.34
2022-12-11T01:51:57.302Z,948.27
2022-12-11T01:54:56.660Z,948.3
2022-12-11T01:57:56.917Z,948.26
2022-12-11T02:00:57.948Z,948.28
2022-12-11T02:03:57.359Z,948.25
2022-12-11T02:06:57.295Z,948.23
2022-12-11T02:09:57.455Z,948.27
2022-12-11T02:12:56.726Z,948.23
2022-12-11T02:15:56.928Z,948.26
2022-12-11T02:18:57.068Z,948.25
2022-12-11T02:21:57.883Z,948.18
2022-12-11T02:24:57.197Z,948.23
2022-12-11T02:27:56.843Z,948.35
2022-12-11T02:30:57.582Z,948.26
2022-12-11T02:33:57.027Z,948.27
2022-12-11T02:36:57.465Z,948.4
2022-12-11T02:39:56.999Z,948.38
2022-12-11T02:42:57.227Z,948.31
2022-12-11T02:45:57.312Z,948.26
2022-12-11T02:48:57.532Z,948.29
2022-12-11T02:51:57.654Z,948.28
2022-12-11T02:54:57.068Z,948.25
2022-12-11T02:57:56.848Z,948.22
2022-12-11T03:00:57.895Z,948.25
2022-12-11T03:03:57.391Z,948.26
2022-12-11T03:06:56.897Z,948.3
2022-12-11T03:09:57.606Z,948.34
2022-12-11T03:12:57.425Z,948.3
2022-12-11T03:15:57.324Z,948.31
2022-12-11T03:18:57.453Z,948.14
2022-12-11T03:21:57.358Z,948.19
2022-12-11T03:24:57.795Z,948.19
2022-12-11T03:27:57.737Z,948.23
2022-12-11T03:30:57.404Z,948.26
2022-12-11T03:33:56.895Z,948.16
2022-12-11T03:36:57.051Z,948.16
2022-12-11T03:39:56.773Z,948.17
2022-12-11T03:42:57.206Z,948.34
2022-12-11T03:45:58.022Z,948.25
2022-12-11T03:48:57.398Z,948.2
2022-12-11T03:51:56.870Z,948.21
2022-12-11T03:54:57.028Z,948.15
2022-12-11T03:57:56.726Z,948.06
2022-12-11T04:00:56.940Z,948.08
2022-12-11T04:03:57.741Z,948.01
2022-12-11T04:06:57.358Z,948.0
2022-12-11T04:09:56.948Z,948.08
2022-12-11T04:12:57.310Z,948.15
2022-12-11T04:15:57.072Z,948.19
2022-12-11T04:18:57.761Z,948.16
2022-12-11T04:21:57.450Z,948.1
2022-12-11T04:24:57.629Z,948.17
2022-12-11T04:27:57.431Z,948.06
2022-12-11T04:30:57.532Z,948.06
2022-12-11T04:33:57.343Z,948.09
2022-12-11T04:36:57.694Z,948.12
2022-12-11T04:39:57.375Z,948.05
2022-12-11T04:42:57.228Z,948.19
2022-12-11T04:45:57.081Z,948.1
2022-12-11T04:48:57.902Z,948.17
2022-12-11T04:51:57.253Z,948.19
2022-12-11T04:54:57.934Z,948.23
2022-12-11T04:57:57.127Z,948.19
2022-12-11T05:00:57.856Z,948.14
2022-12-11T05:03:57.447Z,948.08
2022-12-11T05:06:57.955Z,948.07
2022-12-11T05:09:57.948Z,948.08
2022-12-11T05:12:57.494Z,947.97
2022-12-11T05:15:57.860Z,948.01
2022-12-11T05:18:57.547Z,948.07
2022-12-11T05:21:56.942Z,948.13
2022-12-11T05:24:57.935Z,948.03
2022-12-11T05:27:57.574Z,948.04
2022-12-11T05:30:57.354Z,948.04
2022-12-11T05:33:57.333Z,948.01
2022-12-11T05:36:57.129Z,948.08
2022-12-11T05:39:57.367Z,948.08
2022-12-11T05:42:57.535Z,948.0
2022-12-11T05:45:57.628Z,948.01
2022-12-11T05:48:57.463Z,948.09
2022-12-11T05:51:57.211Z,947.94
2022-12-11T05:54:56.774Z,948.0
2022-12-11T05:57:56.575Z,948.02
2022-12-11T06:00:57.630Z,947.89
2022-12-11T06:03:56.809Z,947.91
2022-12-11T06:06:57.108Z,947.89
2022-12-11T06:09:57.753Z,947.84
2022-12-11T06:12:57.157Z,947.79
2022-12-11T06:15:57.989Z,947.85
2022-12-11T06:18:58.790Z,947.82
2022-12-11T06:21:57.482Z,947.91
2022-12-11T06:24:56.930Z,947.85
2022-12-11T06:27:57.492Z,947.86
2022-12-11T06:30:57.835Z,947.86
2022-12-11T06:33:57.753Z,947.86
2022-12-11T06:36:56.971Z,947.8
2022-12-11T06:39:57.790Z,947.74
2022-12-11T06:42:57.192Z,947.76
2022-12-11T06:46:03.585Z,947.78
2022-12-11T06:48:57.557Z,947.74
2022-12-11T06:51:57.074Z,947.86
2022-12-11T06:54:57.920Z,947.83
2022-12-11T06:57:57.245Z,947.76
2022-12-11T07:00:57.087Z,947.76
2022-12-11T07:03:57.672Z,947.76
2022-12-11T07:06:57.000Z,947.74
2022-12-11T07:09:57.117Z,947.93
2022-12-11T07:12:57.533Z,947.97
2022-12-11T07:15:57.882Z,947.98
2022-12-11T07:18:57.020Z,947.9
2022-12-11T07:21:57.071Z,947.88
2022-12-11T07:24:58.168Z,947.91
2022-12-11T07:27:57.023Z,947.9
2022-12-11T07:30:57.800Z,947.83
2022-12-11T07:33:57.851Z,947.88
2022-12-11T07:36:57.760Z,947.93
2022-12-11T07:39:57.256Z,947.89
2022-12-11T07:42:57.860Z,947.77
2022-12-11T07:45:57.748Z,947.89
2022-12-11T07:48:57.687Z,947.83
2022-12-11T07:51:56.709Z,947.81
2022-12-11T07:54:57.472Z,947.88
2022-12-11T07:57:57.505Z,947.84
2022-12-11T08:00:57.624Z,947.82
2022-12-11T08:03:56.732Z,947.92
2022-12-11T08:06:58.087Z,947.94
2022-12-11T08:09:57.226Z,947.88
2022-12-11T08:12:57.587Z,947.92
2022-12-11T08:15:57.430Z,947.82
2022-12-11T08:18:57.462Z,947.9
2022-12-11T08:21:57.248Z,947.93
2022-12-11T08:24:57.275Z,947.93
2022-12-11T08:27:57.381Z,947.92
2022-12-11T08:30:57.436Z,947.86
2022-12-11T08:33:57.683Z,947.89
2022-12-11T08:36:57.247Z,948.04
2022-12-11T08:39:57.931Z,947.94
2022-12-11T08:42:57.319Z,947.97
2022-12-11T08:45:57.444Z,948.0
2022-12-11T08:48:57.808Z,947.91
2022-12-11T08:51:57.457Z,947.93
2022-12-11T08:54:57.280Z,947.95
2022-12-11T08:57:57.737Z,947.92
2022-12-11T09:00:57.747Z,948.0
2022-12-11T09:03:56.993Z,947.94
2022-12-11T09:06:57.690Z,947.87
2022-12-11T09:09:57.235Z,948.0
2022-12-11T09:12:57.263Z,947.99
2022-12-11T09:15:57.617Z,948.02
2022-12-11T09:18:57.265Z,948.09
2022-12-11T09:21:57.239Z,947.99
2022-12-11T09:24:57.726Z,947.95
2022-12-11T09:27:57.391Z,947.98
2022-12-11T09:30:57.957Z,947.92
2022-12-11T09:33:57.622Z,948.03
2022-12-11T09:36:57.373Z,948.0
2022-12-11T09:40:01.326Z,948.02
2022-12-11T09:42:57.059Z,947.89
2022-12-11T09:45:57.299Z,947.87
2022-12-11T09:48:57.125Z,947.93
2022-12-11T09:51:57.067Z,947.92
2022-12-11T09:54:57.150Z,947.96
2022-12-11T09:57:56.984Z,947.86
2022-12-11T10:00:57.417Z,947.82
2022-12-11T10:03:57.763Z,947.79
2022-12-11T10:06:57.480Z,947.68
2022-12-11T10:09:57.767Z,947.7
2022-12-11T10:12:57.512Z,947.73
2022-12-11T10:15:57.733Z,947.63
2022-12-11T10:18:57.721Z,947.63
2022-12-11T10:21:56.919Z,947.59
2022-12-11T10:25:11.607Z,947.65
2022-12-11T10:27:57.868Z,947.63
2022-12-11T10:30:57.962Z,947.52
2022-12-11T10:33:57.365Z,947.52
2022-12-11T10:37:00.531Z,947.48
2022-12-11T10:39:58.103Z,947.5
2022-12-11T10:42:57.576Z,947.47
2022-12-11T10:45:57.535Z,947.41
2022-12-11T10:48:57.496Z,947.37
2022-12-11T10:51:57.188Z,947.34
2022-12-11T10:54:57.675Z,947.38
2022-12-11T10:57:57.207Z,947.33
2022-12-11T11:00:57.552Z,947.32
2022-12-11T11:04:16.555Z,947.47
2022-12-11T11:06:57.856Z,947.26
2022-12-11T11:09:57.608Z,947.3
2022-12-11T11:12:57.514Z,947.29
2022-12-11T11:15:57.655Z,947.29
2022-12-11T11:18:57.339Z,947.25
2022-12-11T11:21:56.860Z,947.15
2022-12-11T11:24:57.679Z,947.13
2022-12-11T11:27:57.372Z,947.15
2022-12-11T11:30:58.089Z,947.1
2022-12-11T11:33:56.989Z,947.07
2022-12-11T11:36:57.441Z,947.04
2022-12-11T11:39:56.999Z,947.05
2022-12-11T11:42:57.482Z,947.03
2022-12-11T11:45:57.516Z,946.95
2022-12-11T11:48:57.552Z,947.0
2022-12-11T11:51:57.261Z,946.9
2022-12-11T11:54:56.785Z,946.76
2022-12-11T11:57:58.107Z,946.98
2022-12-11T12:00:58.087Z,946.89
2022-12-11T12:03:56.914Z,946.88
2022-12-11T12:06:57.072Z,946.75
2022-12-11T12:09:58.016Z,946.82
2022-12-11T12:12:57.015Z,946.78
2022-12-11T12:15:58.033Z,946.71
2022-12-11T12:18:57.792Z,946.73
2022-12-11T12:21:56.890Z,946.6
2022-12-11T12:24:57.811Z,946.58
2022-12-11T12:27:57.573Z,946.59
2022-12-11T12:30:57.549Z,946.65
2022-12-11T12:33:57.884Z,946.55
2022-12-11T12:36:57.420Z,946.64
2022-12-11T12:39:57.276Z,946.65
2022-12-11T12:42:56.990Z,946.67
2022-12-11T12:45:57.678Z,946.67
2022-12-11T12:48:57.416Z,946.59
2022-12-11T12:51:57.097Z,946.56
2022-12-11T12:54:57.568Z,946.58
2022-12-11T12:57:57.252Z,946.52
2022-12-11T13:00:57.129Z,946.54
2022-12-11T13:03:57.776Z,946.58
2022-12-11T13:06:59.054Z,946.55
2022-12-11T13:09:57.515Z,946.52
2022-12-11T13:12:57.336Z,946.6
2022-12-11T13:15:57.319Z,946.59
2022-12-11T13:18:57.214Z,946.67
2022-12-11T13:21:57.952Z,946.63
2022-12-11T13:24:57.354Z,946.58
2022-12-11T13:27:57.432Z,946.52
2022-12-11T13:30:57.699Z,946.48
2022-12-11T13:33:57.799Z,946.51
2022-12-11T13:36:57.663Z,946.48
2022-12-11T13:39:58.174Z,946.52
2022-12-11T13:42:57.160Z,946.6
2022-12-11T13:45:57.973Z,946.58
2022-12-11T13:48:57.527Z,946.65
2022-12-11T13:51:57.120Z,946.72
2022-12-11T13:54:57.424Z,946.83
2022-12-11T13:57:57.782Z,946.75
2022-12-11T14:00:57.442Z,946.77
2022-12-11T14:03:57.009Z,946.68
2022-12-11T14:06:57.633Z,946.59
2022-12-11T14:09:57.891Z,946.66
2022-12-11T14:12:57.376Z,946.7
2022-12-11T14:15:57.011Z,946.76
2022-12-11T14:18:58.299Z,946.64
2022-12-11T14:21:57.293Z,946.75
2022-12-11T14:24:57.611Z,946.76
2022-12-11T14:27:57.682Z,946.76
2022-12-11T14:30:57.578Z,946.74
2022-12-11T14:33:57.500Z,946.82
2022-12-11T14:36:57.404Z,946.79
2022-12-11T14:39:57.317Z,946.82
2022-12-11T14:43:00.328Z,946.84
2022-12-11T14:45:57.983Z,946.8
2022-12-11T14:49:00.782Z,946.9
2022-12-11T14:51:56.849Z,947.01
2022-12-11T14:54:57.435Z,946.92
2022-12-11T14:57:58.165Z,946.94
2022-12-11T15:00:57.738Z,946.91
2022-12-11T15:03:56.649Z,947.01
2022-12-11T15:06:57.155Z,947.0
2022-12-11T15:09:56.965Z,946.99
2022-12-11T15:12:57.530Z,947.0
2022-12-11T15:15:57.907Z,946.97
2022-12-11T15:18:56.977Z,947.04
2022-12-11T15:21:57.551Z,947.14
2022-12-11T15:24:57.681Z,947.15
2022-12-11T15:27:57.495Z,947.13
2022-12-11T15:30:57.540Z,947.12
2022-12-11T15:33:57.401Z,947.16
2022-12-11T15:36:57.602Z,947.19
2022-12-11T15:39:57.294Z,947.24
2022-12-11T15:42:57.876Z,947.27
2022-12-11T15:45:57.141Z,947.13
2022-12-11T15:48:57.191Z,947.34
2022-12-11T15:51:57.837Z,947.37
2022-12-11T15:54:57.850Z,947.47
2022-12-11T15:57:57.497Z,947.37
2022-12-11T16:00:57.660Z,947.4
2022-12-11T16:04:01.791Z,947.42
2022-12-11T16:06:57.204Z,947.44
2022-12-11T16:09:56.700Z,947.38
2022-12-11T16:12:57.850Z,947.38
2022-12-11T16:15:57.314Z,947.41
2022-12-11T16:18:57.747Z,947.55
2022-12-11T16:21:56.962Z,947.54
2022-12-11T16:24:56.941Z,947.49
2022-12-11T16:27:57.835Z,947.55
2022-12-11T16:30:57.934Z,947.53
2022-12-11T16:33:57.291Z,947.46
2022-12-11T16:36:57.279Z,947.61
2022-12-11T16:39:57.661Z,947.53
2022-12-11T16:42:57.189Z,947.45
2022-12-11T16:45:58.146Z,947.41
2022-12-11T16:48:57.368Z,947.54
2022-12-11T16:51:57.208Z,947.46
2022-12-11T16:54:57.152Z,947.54
2022-12-11T16:57:57.694Z,947.39
2022-12-11T17:00:57.550Z,947.42
2022-12-11T17:03:57.995Z,947.44
2022-12-11T17:06:57.838Z,947.44
2022-12-11T17:09:57.867Z,947.36
2022-12-11T17:12:57.803Z,947.54
2022-12-11T17:15:57.618Z,947.44
2022-12-11T17:18:57.553Z,947.61
2022-12-11T17:21:56.885Z,947.4
2022-12-11T17:24:57.277Z,947.47
2022-12-11T17:27:57.783Z,947.47
2022-12-11T17:30:57.443Z,947.32
2022-12-11T17:33:56.690Z,947.31
2022-12-11T17:36:57.198Z,947.35
2022-12-11T17:39:57.311Z,947.38
2022-12-11T17:42:57.848Z,947.32
2022-12-11T17:45:57.967Z,947.44
2022-12-11T17:48:57.759Z,947.35
2022-12-11T17:51:57.478Z,947.41
2022-12-11T17:54:57.091Z,947.45
2022-12-11T17:57:57.840Z,947.51
2022-12-11T18:01:25.659Z,947.43
2022-12-11T18:03:57.795Z,947.46
2022-12-11T18:06:57.678Z,947.42
2022-12-11T18:09:57.189Z,947.47
2022-12-11T18:12:57.051Z,947.47
2022-12-11T18:15:57.554Z,947.41
2022-12-11T18:18:57.598Z,947.42
2022-12-11T18:21:57.149Z,947.36
2022-12-11T18:24:57.348Z,947.49
2022-12-11T18:27:57.262Z,947.45
2022-12-11T18:30:57.974Z,947.46
2022-12-11T18:33:57.518Z,947.56
2022-12-11T18:36:56.854Z,947.55
2022-12-11T18:39:57.750Z,947.51
2022-12-11T18:42:57.690Z,947.51
2022-12-11T18:45:57.852Z,947.55
2022-12-11T18:48:57.412Z,947.58
2022-12-11T18:51:57.283Z,947.58
2022-12-11T18:54:57.544Z,947.59
2022-12-11T18:57:57.521Z,947.55
2022-12-11T19:00:58.659Z,947.55
2022-12-11T19:04:03.267Z,947.45
2022-12-11T19:06:57.096Z,947.46
2022-12-11T19:09:58.391Z,947.33
2022-12-11T19:12:57.187Z,947.52
2022-12-11T19:15:57.524Z,947.48
2022-12-11T19:18:57.152Z,947.41
2022-12-11T19:21:57.113Z,947.49
2022-12-11T19:24:58.120Z,947.49
2022-12-11T19:27:57.436Z,947.45
2022-12-11T19:30:57.235Z,947.47
2022-12-11T19:33:56.941Z,947.49
2022-12-11T19:36:57.523Z,947.52
2022-12-11T19:39:58.144Z,947.37
2022-12-11T19:42:58.131Z,947.52
2022-12-11T19:45:57.571Z,947.46
2022-12-11T19:48:57.454Z,947.48
2022-12-11T19:51:57.026Z,947.45
2022-12-11T19:54:57.779Z,947.46
2022-12-11T19:57:57.151Z,947.49
2022-12-11T20:00:58.586Z,947.5
2022-12-11T20:03:58.885Z,947.4
2022-12-11T20:06:57.129Z,947.42
2022-12-11T20:09:57.545Z,947.49
2022-12-11T20:12:57.502Z,947.46
2022-12-11T20:15:57.908Z,947.43
2022-12-11T20:18:56.636Z,947.49
2022-12-11T20:21:57.022Z,947.55
2022-12-11T20:24:57.351Z,947.48
2022-12-11T20:27:57.282Z,947.47
2022-12-11T20:30:57.095Z,947.5
2022-12-11T20:33:57.094Z,947.52
2022-12-11T20:36:57.860Z,947.52
2022-12-11T20:39:57.077Z,947.5
2022-12-11T20:42:57.088Z,947.49
2022-12-11T20:45:57.996Z,947.47
2022-12-11T20:48:57.185Z,947.53
2022-12-11T20:51:57.545Z,947.45
2022-12-11T20:54:56.973Z,947.39
2022-12-11T20:57:57.605Z,947.4
2022-12-11T21:00:57.759Z,947.45
2022-12-11T21:03:57.444Z,947.51
2022-12-11T21:06:57.613Z,947.47
2022-12-11T21:09:57.762Z,947.48
2022-12-11T21:12:57.677Z,947.49
2022-12-11T21:15:57.653Z,947.51
2022-12-11T21:18:57.603Z,947.57
2022-12-11T21:21:57.767Z,947.53
2022-12-11T21:24:57.089Z,947.54
2022-12-11T21:27:57.045Z,947.54
2022-12-11T21:30:57.397Z,947.48
2022-12-11T21:33:57.281Z,947.57
2022-12-11T21:36:57.422Z,947.57
2022-12-11T21:39:57.318Z,947.57
2022-12-11T21:42:57.159Z,947.55
2022-12-11T21:46:01.686Z,947.49
2022-12-11T21:48:57.801Z,947.44
2022-12-11T21:51:57.562Z,947.51
2022-12-11T21:54:57.315Z,947.45
2022-12-11T21:57:58.174Z,947.42
2022-12-11T22:00:57.943Z,947.35
2022-12-11T22:03:56.926Z,947.38
2022-12-11T22:06:57.280Z,947.44
2022-12-11T22:09:56.934Z,947.53
2022-12-11T22:12:57.045Z,947.53
2022-12-11T22:15:57.645Z,947.51
2022-12-11T22:18:57.748Z,947.49
2022-12-11T22:21:57.647Z,947.61
2022-12-11T22:24:57.674Z,947.66
2022-12-11T22:27:57.477Z,947.59
2022-12-11T22:30:57.188Z,947.65
2022-12-11T22:33:57.505Z,947.59
2022-12-11T22:36:57.431Z,947.63
2022-12-11T22:39:57.092Z,947.57
2022-12-11T22:42:57.416Z,947.53
2022-12-11T22:45:57.285Z,947.63
2022-12-11T22:48:57.518Z,947.53
2022-12-11T22:51:56.995Z,947.56
2022-12-11T22:54:57.339Z,947.48
2022-12-11T22:57:57.237Z,947.56
2022-12-11T23:00:58.443Z,947.52
2022-12-11T23:03:57.154Z,947.59
2022-12-11T23:06:57.462Z,947.62
2022-12-11T23:09:57.144Z,947.59
2022-12-11T23:12:56.946Z,947.54
2022-12-11T23:15:57.048Z,947.55
2022-12-11T23:18:57.129Z,947.57
2022-12-11T23:21:57.740Z,947.63
2022-12-11T23:24:56.946Z,947.67
2022-12-11T23:27:58.036Z,947.66
2022-12-11T23:30:57.267Z,947.81
2022-12-11T23:33:58.164Z,947.74
2022-12-11T23:36:57.691Z,947.83
2022-12-11T23:39:56.622Z,947.76
2022-12-11T23:42:57.596Z,947.75
2022-12-11T23:45:57.446Z,947.71
2022-12-11T23:48:57.686Z,947.83
2022-12-11T23:51:57.475Z,947.74
2022-12-11T23:54:57.388Z,947.76
2022-12-11T23:57:56.829Z,947.74
